Time;durP1;ratioP1;P1;durP2;ratioP2;P2;SDS_P1;SDS_P2;PMS_P1;PMS_P2;Temp;Humidity;BMP_temperature;BMP_pressure;BME280_temperature;BME280_humidity;BME280_pressure;Samples;Min_cycle;Max_cycle;Signal;HPM_P1;HPM_P2
2022/06/08 00:00:46;;;;;;;2.63;2.40;;;21.30;66.10;22.50;100317.00;;;;4967653;28;20180;-42
2022/06/08 00:03:26;;;;;;;2.53;2.33;;;21.30;66.20;22.50;100228.00;;;;4967062;28;20286;-44
2022/06/08 00:05:52;;;;;;;2.27;2.17;;;21.30;66.20;22.50;100313.00;;;;4969249;28;20196;-43
2022/06/08 00:08:19;;;;;;;3.50;2.40;;;21.30;66.30;22.50;100314.00;;;;4951379;28;20295;-43
2022/06/08 00:10:44;;;;;;;2.60;2.40;;;21.30;66.30;22.50;100315.00;;;;4967687;28;20580;-42
2022/06/08 00:13:11;;;;;;;2.87;2.30;;;21.30;66.10;22.50;100323.00;;;;4967928;28;20191;-44
2022/06/08 00:15:37;;;;;;;2.40;2.20;;;21.30;66.20;22.50;100323.00;;;;4967983;28;20171;-42
2022/06/08 00:18:03;;;;;;;2.20;2.00;;;21.30;66.10;22.50;100318.00;;;;4967674;28;20172;-44
2022/06/08 00:20:29;;;;;;;2.30;2.10;;;21.30;66.10;22.50;100305.00;;;;4968078;28;20199;-44
2022/06/08 00:22:54;;;;;;;2.97;2.07;;;21.30;66.10;22.50;100302.00;;;;4967904;28;20196;-42
2022/06/08 00:25:20;;;;;;;2.57;2.10;;;21.30;66.10;22.50;100306.00;;;;4968122;28;20180;-41
2022/06/08 00:27:46;;;;;;;2.93;2.10;;;21.30;66.10;22.50;100309.00;;;;4967530;28;20232;-42
2022/06/08 00:30:12;;;;;;;2.83;2.30;;;21.20;66.00;22.50;100305.00;;;;4968013;28;20192;-43
2022/06/08 00:32:38;;;;;;;2.20;2.10;;;21.20;66.00;22.50;100301.00;;;;4967877;28;20195;-42
2022/06/08 00:35:04;;;;;;;2.80;2.00;;;21.30;66.20;22.50;100297.00;;;;4967876;28;20187;-44
2022/06/08 00:37:30;;;;;;;2.17;2.00;;;21.20;66.10;22.50;100294.00;;;;4972164;28;20184;-44
2022/06/08 00:39:56;;;;;;;2.10;2.00;;;21.20;66.10;22.50;100300.00;;;;4976300;28;20191;-44
2022/06/08 00:42:22;;;;;;;2.40;1.93;;;21.20;66.10;22.50;100296.00;;;;4969565;28;20737;-43
2022/06/08 00:44:56;;;;;;;2.27;2.10;;;21.20;66.00;22.50;100283.00;;;;4966588;28;20247;-43
2022/06/08 00:47:25;;;;;;;2.80;2.03;;;21.20;65.80;22.40;100292.00;;;;4966434;28;20188;-43
2022/06/08 00:49:57;;;;;;;2.10;2.00;;;21.20;66.00;22.40;100294.00;;;;4966871;28;20874;-42
2022/06/08 00:52:23;;;;;;;2.30;2.10;;;21.20;66.10;22.40;100288.00;;;;4966664;28;20192;-45
2022/06/08 00:54:52;;;;;;;2.20;2.00;;;21.20;66.10;22.40;100281.00;;;;4966696;28;20661;-41
2022/06/08 00:57:28;;;;;;;1.97;1.87;;;21.20;66.10;22.40;100281.00;;;;4966278;28;20192;-42
2022/06/08 01:00:11;;;;;;;2.40;2.20;;;21.20;66.10;22.40;100276.00;;;;4966473;28;20600;-42
2022/06/08 01:02:37;;;;;;;2.20;2.00;;;21.20;66.20;22.40;100279.00;;;;4967529;28;20922;-44
2022/06/08 01:05:30;;;;;;;2.30;2.10;;;21.20;66.20;22.40;100262.00;;;;4966426;28;20183;-42
2022/06/08 01:07:59;;;;;;;2.30;2.10;;;21.20;66.30;22.30;100275.00;;;;4967282;28;20225;-42
2022/06/08 01:10:30;;;;;;;2.17;2.00;;;21.10;66.10;22.30;100267.00;;;;4966527;28;20251;-42
2022/06/08 01:13:01;;;;;;;2.23;1.97;;;21.10;66.20;22.30;100268.00;;;;4966058;28;20674;-43
2022/06/08 01:15:27;;;;;;;2.30;2.10;;;21.10;66.20;22.20;100267.00;;;;4966674;28;20167;-43
2022/06/08 01:17:53;;;;;;;2.00;1.90;;;21.10;66.20;22.20;100264.00;;;;4965925;28;20207;-43
2022/06/08 01:20:19;;;;;;;2.10;1.90;;;21.10;66.20;22.20;100200.00;;;;4967486;28;20204;-43
2022/06/08 01:22:44;;;;;;;2.17;1.97;;;21.10;66.30;22.20;100257.00;;;;4969821;28;20247;-43
2022/06/08 01:25:11;;;;;;;3.40;2.10;;;21.10;66.20;22.20;100253.00;;;;4969966;28;20704;-43
2022/06/08 01:27:42;;;;;;;1.90;1.80;;;21.10;66.30;22.20;100251.00;;;;4969525;28;20200;-43
2022/06/08 01:30:24;;;;;;;2.03;1.93;;;21.00;66.20;22.20;100244.00;;;;4971040;28;20208;-43
2022/06/08 01:33:27;;;;;;;2.03;1.90;;;21.10;66.40;22.20;100244.00;;;;4954205;28;20282;-43
2022/06/08 01:36:22;;;;;;;2.03;1.90;;;21.10;66.50;22.20;100248.00;;;;4969639;28;20168;-44
2022/06/08 01:39:06;;;;;;;1.83;1.73;;;21.00;66.40;22.20;100234.00;;;;4970862;28;20256;-43
2022/06/08 01:41:58;;;;;;;2.27;2.10;;;21.10;66.40;22.10;100228.00;;;;4969934;28;20238;-43
2022/06/08 01:47:56;;;;;;;2.53;2.03;;;21.00;66.40;22.10;100230.00;;;;4969564;28;20226;-42
2022/06/08 01:50:46;;;;;;;2.47;2.00;;;21.00;66.40;22.00;100219.00;;;;4971018;28;20172;-44
2022/06/08 01:53:30;;;;;;;3.03;2.00;;;21.00;66.50;22.00;100225.00;;;;4973451;28;20270;-43
2022/06/08 01:56:19;;;;;;;2.10;2.00;;;20.90;66.50;22.00;100211.00;;;;4970591;28;20156;-42
2022/06/08 01:59:22;;;;;;;2.77;1.93;;;20.90;66.40;22.00;100219.00;;;;4969797;28;20766;-42
2022/06/08 02:02:12;;;;;;;2.07;1.93;;;20.90;66.40;22.00;100220.00;;;;4970539;28;20187;-42
2022/06/08 02:04:57;;;;;;;2.10;2.00;;;20.90;66.50;21.90;100223.00;;;;4970643;28;20247;-43
2022/06/08 02:07:43;;;;;;;2.00;1.90;;;20.90;66.40;21.90;100213.00;;;;4970137;28;20772;-43
2022/06/08 02:10:36;;;;;;;2.63;2.07;;;20.90;66.40;21.90;100212.00;;;;4970261;28;20214;-43
2022/06/08 02:13:33;;;;;;;2.10;1.90;;;20.90;66.30;21.90;100211.00;;;;4968595;28;20754;-43
2022/06/08 02:16:27;;;;;;;2.03;1.90;;;20.90;66.30;21.90;100217.00;;;;4969464;28;20195;-43
2022/06/08 02:19:06;;;;;;;2.17;1.97;;;20.90;66.30;21.90;100209.00;;;;4969000;28;20187;-43
2022/06/08 02:21:42;;;;;;;1.93;1.83;;;20.90;66.20;21.80;100206.00;;;;4968591;28;20238;-44
2022/06/08 02:24:29;;;;;;;2.20;2.00;;;20.90;66.30;21.90;100185.00;;;;4973158;28;20649;-43
2022/06/08 02:27:01;;;;;;;2.03;1.93;;;20.90;66.20;21.80;100198.00;;;;4974960;28;20688;-43
2022/06/08 02:29:34;;;;;;;2.67;1.90;;;20.80;66.30;21.80;100191.00;;;;4971852;28;20198;-43
2022/06/08 02:35:01;;;;;;;2.47;2.00;;;20.80;66.40;21.80;100194.00;;;;4968402;28;20215;-43
2022/06/08 02:37:29;;;;;;;1.80;1.70;;;20.80;66.30;21.80;100185.00;;;;4968753;28;20178;-43
2022/06/08 02:40:12;;;;;;;3.67;2.07;;;20.80;66.10;21.80;100174.00;;;;4968819;28;20215;-43
2022/06/08 02:42:47;;;;;;;2.53;2.00;;;20.80;66.20;21.80;100185.00;;;;4968878;28;20218;-43
2022/06/08 02:45:21;;;;;;;3.60;2.10;;;20.80;66.20;21.80;100178.00;;;;4968679;28;20638;-42
2022/06/08 02:47:49;;;;;;;2.20;2.00;;;20.80;66.00;21.80;100183.00;;;;4968224;28;20725;-42
2022/06/08 02:50:24;;;;;;;2.60;1.83;;;20.80;65.90;21.80;100175.00;;;;4968532;28;20234;-42
2022/06/08 02:52:51;;;;;;;2.60;2.07;;;20.80;65.90;21.80;100180.00;;;;4968689;28;20702;-42
2022/06/08 02:56:07;;;;;;;2.07;1.90;;;20.80;65.90;21.80;100167.00;;;;4969536;28;20176;-44
2022/06/08 02:59:29;;;;;;;2.37;2.00;;;20.80;66.00;21.80;100171.00;;;;4968657;28;20178;-43
2022/06/08 03:02:51;;;;;;;2.03;1.93;;;20.70;65.60;21.80;100165.00;;;;4964936;28;20724;-43
2022/06/08 03:05:30;;;;;;;2.10;1.90;;;20.80;65.80;21.70;100163.00;;;;4911250;29;20601;-42
2022/06/08 03:08:06;;;;;;;2.57;2.20;;;20.70;65.50;21.70;100165.00;;;;4985646;28;20273;-43
2022/06/08 03:10:37;;;;;;;2.00;1.80;;;20.70;65.60;21.70;100157.00;;;;4952987;28;20183;-42
2022/06/08 03:13:14;;;;;;;2.33;2.07;;;20.70;65.60;21.70;100165.00;;;;4968565;28;20279;-43
2022/06/08 03:15:40;;;;;;;2.13;1.90;;;20.70;65.60;21.70;100163.00;;;;4967870;28;20168;-43
2022/06/08 03:18:06;;;;;;;2.30;2.10;;;20.70;65.50;21.70;100160.00;;;;4967685;28;20169;-44
2022/06/08 03:20:32;;;;;;;2.10;2.00;;;20.70;65.60;21.70;100158.00;;;;4968986;28;20215;-43
2022/06/08 03:22:58;;;;;;;2.77;2.10;;;20.70;65.70;21.70;100156.00;;;;4969165;28;20228;-42
2022/06/08 03:25:24;;;;;;;2.10;1.90;;;20.70;65.60;21.70;100148.00;;;;4972590;28;20205;-43
2022/06/08 03:27:50;;;;;;;2.33;1.97;;;20.70;65.40;21.70;100146.00;;;;4979427;28;21247;-42
2022/06/08 03:30:16;;;;;;;3.17;2.00;;;20.70;65.60;21.70;100149.00;;;;4988028;28;20207;-42
2022/06/08 03:32:41;;;;;;;7.90;2.23;;;20.70;65.60;21.70;100147.00;;;;4988047;28;20242;-43
2022/06/08 03:35:08;;;;;;;3.93;2.10;;;20.60;66.00;21.70;100151.00;;;;4988027;28;20789;-43
2022/06/08 03:37:34;;;;;;;5.03;2.33;;;20.60;65.80;21.70;100149.00;;;;4987564;28;20186;-43
2022/06/08 03:39:59;;;;;;;3.63;2.00;;;20.60;65.70;21.70;100149.00;;;;4987501;28;20355;-43
2022/06/08 03:42:26;;;;;;;5.73;2.10;;;20.70;65.80;21.70;100151.00;;;;4987726;28;20194;-43
2022/06/08 03:44:52;;;;;;;3.30;2.10;;;20.60;65.80;21.70;100160.00;;;;4987556;28;20701;-43
2022/06/08 03:47:21;;;;;;;4.30;2.40;;;20.60;65.90;21.70;100153.00;;;;4987531;28;20204;-42
2022/06/08 03:49:48;;;;;;;2.77;2.17;;;20.50;65.90;21.70;100166.00;;;;4986645;28;20174;-43
2022/06/08 03:52:18;;;;;;;4.63;2.20;;;20.50;65.80;21.60;100155.00;;;;4986582;28;20184;-43
2022/06/08 03:54:48;;;;;;;2.80;2.10;;;20.50;65.70;21.60;100154.00;;;;4986433;28;20212;-43
2022/06/08 03:57:14;;;;;;;3.50;2.27;;;20.50;65.70;21.60;100154.00;;;;4986088;28;20800;-43
2022/06/08 03:59:40;;;;;;;3.93;2.20;;;20.50;65.90;21.60;100165.00;;;;4985612;28;20153;-44
2022/06/08 04:02:07;;;;;;;2.87;2.30;;;20.50;65.90;21.50;100166.00;;;;4985632;28;20199;-42
2022/06/08 04:04:33;;;;;;;2.30;2.00;;;20.50;65.70;21.50;100171.00;;;;4986214;28;20257;-43
2022/06/08 04:06:59;;;;;;;2.33;2.10;;;20.50;65.70;21.50;100168.00;;;;4986119;28;20740;-43
2022/06/08 04:09:25;;;;;;;2.30;2.10;;;20.50;65.80;21.50;100157.00;;;;4986876;28;20251;-42
2022/06/08 04:11:50;;;;;;;3.67;2.20;;;20.50;66.00;21.50;100152.00;;;;4986926;28;20268;-43
2022/06/08 04:14:16;;;;;;;2.77;2.20;;;20.50;65.90;21.50;100154.00;;;;4987238;28;20671;-43
2022/06/08 04:16:42;;;;;;;2.23;2.03;;;20.50;65.90;21.50;100155.00;;;;4987280;28;20177;-43
2022/06/08 04:19:08;;;;;;;2.23;2.10;;;20.40;65.80;21.50;100150.00;;;;4987053;28;20538;-43
2022/06/08 04:21:33;;;;;;;2.20;2.00;;;20.40;65.80;21.50;100152.00;;;;4986872;28;20214;-43
2022/06/08 04:24:00;;;;;;;2.13;1.93;;;20.40;66.00;21.50;100153.00;;;;4987052;28;20166;-43
2022/06/08 04:26:27;;;;;;;3.40;2.00;;;20.40;66.00;21.50;100157.00;;;;4987103;28;20204;-44
2022/06/08 04:28:53;;;;;;;2.13;1.97;;;20.40;66.00;21.50;100155.00;;;;4987982;28;20189;-43
2022/06/08 04:31:19;;;;;;;2.93;1.80;;;20.50;65.70;21.50;100161.00;;;;4989941;28;20836;-43
2022/06/08 04:33:44;;;;;;;2.13;1.90;;;20.50;65.60;21.50;100171.00;;;;4990248;28;20650;-44
2022/06/08 04:36:11;;;;;;;2.07;1.90;;;20.50;65.50;21.50;100149.00;;;;4987553;28;20259;-43
2022/06/08 04:38:36;;;;;;;2.80;2.00;;;20.40;65.40;21.50;100162.00;;;;4985663;28;20183;-43
2022/06/08 04:41:02;;;;;;;2.77;2.10;;;20.50;65.30;21.50;100161.00;;;;4986689;28;20185;-43
2022/06/08 04:43:28;;;;;;;2.00;1.90;;;20.50;65.30;21.60;100164.00;;;;4987355;28;20185;-43
2022/06/08 04:45:54;;;;;;;1.90;1.80;;;20.40;65.20;21.50;100155.00;;;;4988440;28;20223;-43
2022/06/08 04:48:21;;;;;;;2.57;2.00;;;20.50;65.20;21.50;100138.00;;;;4986960;28;20655;-43
2022/06/08 04:50:48;;;;;;;2.30;1.90;;;20.50;65.10;21.50;100153.00;;;;4986448;28;20172;-42
2022/06/08 04:53:14;;;;;;;7.80;2.40;;;20.50;65.10;21.60;100152.00;;;;4986806;28;20603;-43
2022/06/08 04:55:40;;;;;;;9.90;2.53;;;20.40;64.90;21.60;100148.00;;;;4986620;28;20264;-43
2022/06/08 04:58:05;;;;;;;12.30;2.70;;;20.40;64.90;21.60;100149.00;;;;4990538;28;20181;-43
2022/06/08 05:00:31;;;;;;;8.70;2.70;;;20.50;65.90;21.60;100147.00;;;;4990553;28;20181;-43
2022/06/08 05:02:57;;;;;;;5.40;2.70;;;20.40;65.00;21.50;100138.00;;;;4990583;28;20201;-41
2022/06/08 05:05:28;;;;;;;13.87;3.30;;;20.40;65.00;21.50;100129.00;;;;4990628;28;20203;-42
2022/06/08 05:07:54;;;;;;;7.70;2.77;;;20.40;65.20;21.50;100144.00;;;;4990486;28;20373;-42
2022/06/08 05:10:21;;;;;;;8.47;2.60;;;20.40;65.00;21.60;100133.00;;;;4990163;28;20435;-43
2022/06/08 05:12:47;;;;;;;10.07;2.77;;;20.40;65.00;21.60;100125.00;;;;4989487;28;20195;-43
2022/06/08 05:15:25;;;;;;;8.13;2.47;;;20.40;64.90;21.60;100129.00;;;;4983159;28;20774;-42
2022/06/08 05:17:50;;;;;;;10.80;2.67;;;20.40;64.90;21.60;100120.00;;;;4980318;28;20168;-42
2022/06/08 05:20:17;;;;;;;7.37;2.53;;;20.40;64.90;21.50;100121.00;;;;4971371;28;20556;-42
2022/06/08 05:22:44;;;;;;;6.47;2.70;;;20.40;65.00;21.50;100117.00;;;;4969044;28;20760;-43
2022/06/08 05:25:14;;;;;;;9.57;2.80;;;20.50;65.00;21.50;100111.00;;;;4789586;28;20858;-42
2022/06/08 05:27:40;;;;;;;8.60;2.60;;;20.40;65.10;21.50;100108.00;;;;4988006;28;20204;-44
2022/06/08 05:30:09;;;;;;;7.47;2.50;;;20.50;65.00;21.50;100099.00;;;;4991417;28;20191;-43
2022/06/08 05:32:35;;;;;;;6.13;2.27;;;20.40;64.80;21.60;100103.00;;;;4992318;28;20203;-44
2022/06/08 05:35:01;;;;;;;5.53;2.50;;;20.40;65.10;21.60;100101.00;;;;4991759;28;20164;-43
2022/06/08 05:37:26;;;;;;;5.63;2.60;;;20.50;65.30;21.60;100103.00;;;;4991307;28;20216;-43
2022/06/08 05:39:52;;;;;;;6.43;2.37;;;20.40;65.60;21.60;100100.00;;;;4992056;28;20180;-43
2022/06/08 05:42:18;;;;;;;5.73;2.30;;;20.40;65.80;21.60;100096.00;;;;4991382;28;20204;-43
2022/06/08 05:44:43;;;;;;;10.60;2.70;;;20.40;67.00;21.60;100095.00;;;;4991566;28;20187;-44
2022/06/08 05:47:09;;;;;;;14.17;2.80;;;20.50;66.40;21.60;100100.00;;;;4993730;28;20204;-43
2022/06/08 05:49:35;;;;;;;7.97;2.40;;;20.40;67.10;21.50;100104.00;;;;4994547;28;20184;-43
2022/06/08 05:52:02;;;;;;;7.70;2.27;;;20.40;67.20;21.50;100103.00;;;;4993111;28;20693;-43
2022/06/08 05:54:29;;;;;;;7.77;2.47;;;20.50;66.80;21.50;100102.00;;;;4992013;28;20231;-43
2022/06/08 05:56:55;;;;;;;11.90;2.70;;;20.50;67.00;21.50;100092.00;;;;4991759;28;20176;-43
2022/06/08 05:59:20;;;;;;;10.13;2.40;;;20.50;67.20;21.50;100093.00;;;;4991208;28;20188;-42
2022/06/08 06:01:46;;;;;;;13.10;2.23;;;20.40;67.00;21.50;100088.00;;;;4991464;28;20291;-44
2022/06/08 06:04:12;;;;;;;7.47;2.23;;;20.40;67.10;21.50;100077.00;;;;4991462;28;20545;-43
2022/06/08 06:06:38;;;;;;;5.33;2.17;;;20.40;67.30;21.50;100075.00;;;;4991217;28;20209;-43
2022/06/08 06:09:04;;;;;;;5.80;2.40;;;20.40;67.20;21.50;100076.00;;;;4991594;28;20264;-43
2022/06/08 06:11:30;;;;;;;3.03;2.10;;;20.40;67.10;21.50;100073.00;;;;4991065;28;20288;-43
2022/06/08 06:13:57;;;;;;;4.13;2.10;;;20.50;67.30;21.50;100068.00;;;;4991250;28;20182;-43
2022/06/08 06:16:24;;;;;;;4.17;2.10;;;20.40;67.40;21.50;100060.00;;;;4991584;28;20172;-45
2022/06/08 06:18:50;;;;;;;4.73;1.93;;;20.40;67.20;21.50;100073.00;;;;4990887;28;20540;-41
2022/06/08 06:21:20;;;;;;;2.10;1.90;;;20.40;67.10;21.50;100068.00;;;;4990373;28;20193;-43
2022/06/08 06:23:46;;;;;;;3.23;1.90;;;20.40;67.40;21.50;100073.00;;;;4989591;28;20243;-43
2022/06/08 06:26:12;;;;;;;3.03;1.87;;;20.40;67.10;21.50;100056.00;;;;4811980;28;20622;-43
2022/06/08 06:28:38;;;;;;;2.30;1.80;;;20.40;67.10;21.50;100060.00;;;;4990607;28;20186;-42
2022/06/08 06:31:03;;;;;;;2.00;1.80;;;20.40;67.10;21.50;100050.00;;;;4990655;28;20182;-43
2022/06/08 06:33:29;;;;;;;1.70;1.60;;;20.40;67.30;21.50;100052.00;;;;4990714;28;20180;-43
2022/06/08 06:35:56;;;;;;;1.97;1.80;;;20.40;67.30;21.50;100051.00;;;;4973220;28;20245;-43
2022/06/08 06:38:22;;;;;;;4.17;1.77;;;20.40;67.40;21.50;100059.00;;;;4990612;28;20580;-42
2022/06/08 06:40:47;;;;;;;3.00;1.83;;;20.30;67.70;21.50;100055.00;;;;4990704;28;20637;-42
2022/06/08 06:43:13;;;;;;;1.70;1.60;;;20.30;68.00;21.50;100058.00;;;;4990541;28;20193;-43
2022/06/08 06:45:39;;;;;;;2.47;1.80;;;20.40;67.80;21.50;100057.00;;;;4990728;28;20815;-43
2022/06/08 06:48:05;;;;;;;2.23;1.63;;;20.40;68.20;21.40;100030.00;;;;4990538;28;20694;-43
2022/06/08 06:50:31;;;;;;;2.40;1.53;;;20.40;68.30;21.40;100049.00;;;;4990713;28;20187;-42
2022/06/08 06:52:59;;;;;;;2.87;1.87;;;20.40;68.50;21.50;100053.00;;;;4990820;28;20192;-42
2022/06/08 06:55:30;;;;;;;1.60;1.50;;;20.40;68.50;21.50;100053.00;;;;4990896;28;20263;-42
2022/06/08 06:57:57;;;;;;;1.90;1.80;;;20.40;68.80;21.50;100053.00;;;;4990286;28;20167;-43
2022/06/08 07:00:23;;;;;;;2.23;1.60;;;20.40;68.60;21.50;100046.00;;;;4989913;28;20201;-43
2022/06/08 07:02:49;;;;;;;1.60;1.50;;;20.40;68.50;21.50;100054.00;;;;4989933;28;20196;-43
2022/06/08 07:05:24;;;;;;;1.70;1.60;;;20.40;68.60;21.50;100056.00;;;;4985596;28;20250;-43
2022/06/08 07:07:50;;;;;;;1.70;1.60;;;20.40;68.70;21.50;100053.00;;;;4981321;28;20283;-42
2022/06/08 07:10:16;;;;;;;2.43;1.73;;;20.40;69.00;21.50;100049.00;;;;4988391;28;20196;-42
2022/06/08 07:12:42;;;;;;;1.97;1.50;;;20.40;68.90;21.50;100047.00;;;;4990259;28;20200;-42
2022/06/08 07:15:13;;;;;;;1.73;1.63;;;20.40;68.70;21.30;100036.00;;;;4990440;28;20384;-43
2022/06/08 07:17:39;;;;;;;2.33;1.53;;;20.40;68.80;21.50;100031.00;;;;4987603;28;20188;-44
2022/06/08 07:20:06;;;;;;;1.57;1.47;;;20.40;68.90;21.50;100028.00;;;;4988303;28;20171;-42
2022/06/08 07:22:31;;;;;;;1.97;1.77;;;20.40;69.00;21.50;100027.00;;;;4986933;28;20270;-44
2022/06/08 07:24:57;;;;;;;1.60;1.50;;;20.40;69.20;21.50;100034.00;;;;4799568;28;20498;-42
2022/06/08 07:27:23;;;;;;;4.00;1.80;;;20.40;69.30;21.50;100025.00;;;;4989928;28;20356;-43
2022/06/08 07:29:50;;;;;;;4.60;1.77;;;20.40;69.60;21.50;100015.00;;;;4989497;28;20173;-43
2022/06/08 07:32:15;;;;;;;2.23;1.70;;;20.40;69.70;21.50;100024.00;;;;4988500;28;20191;-43
2022/06/08 07:34:41;;;;;;;2.87;1.90;;;20.40;69.70;21.50;100021.00;;;;4990308;28;20510;-43
2022/06/08 07:37:07;;;;;;;2.83;1.77;;;20.40;69.50;21.50;100026.00;;;;4989729;28;20647;-43
2022/06/08 07:39:33;;;;;;;2.97;1.80;;;20.40;69.50;21.50;100013.00;;;;4989684;28;20177;-43
2022/06/08 07:41:59;;;;;;;4.07;1.80;;;20.30;69.50;21.50;100011.00;;;;4989192;28;20200;-44
2022/06/08 07:44:25;;;;;;;3.40;1.70;;;20.40;69.70;21.50;100007.00;;;;4989101;28;20300;-42
2022/06/08 07:46:50;;;;;;;2.47;1.80;;;20.30;69.70;21.50;100012.00;;;;4989330;28;20323;-42
2022/06/08 07:49:36;;;;;;;3.53;1.80;;;20.40;69.80;21.50;100006.00;;;;4989320;28;20174;-44
2022/06/08 07:52:05;;;;;;;2.00;1.73;;;20.40;69.80;21.50;100013.00;;;;4990490;28;20204;-42
2022/06/08 07:54:31;;;;;;;1.97;1.70;;;20.40;69.80;21.50;100004.00;;;;4991203;28;20180;-42
2022/06/08 07:56:58;;;;;;;2.87;1.70;;;20.40;69.80;21.50;100003.00;;;;4988995;28;20162;-43
2022/06/08 07:59:25;;;;;;;2.20;1.40;;;20.30;69.70;21.30;100005.00;;;;4988750;28;20176;-43
2022/06/08 08:01:52;;;;;;;2.00;1.80;;;20.30;69.70;21.50;100004.00;;;;4988664;28;20287;-43
2022/06/08 08:04:17;;;;;;;2.03;1.77;;;20.40;69.80;21.50;99993.00;;;;4990217;28;20188;-42
2022/06/08 08:06:43;;;;;;;4.67;1.90;;;20.30;70.50;21.50;99994.00;;;;4990081;28;20202;-42
2022/06/08 08:09:17;;;;;;;2.10;1.87;;;20.40;69.80;21.50;99997.00;;;;4989299;28;20440;-44
2022/06/08 08:11:44;;;;;;;2.03;1.77;;;20.30;69.70;21.50;99994.00;;;;4988925;28;20415;-42
2022/06/08 08:14:10;;;;;;;2.40;1.70;;;20.30;69.70;21.50;99991.00;;;;4988964;28;20539;-42
2022/06/08 08:16:37;;;;;;;1.90;1.70;;;20.30;69.70;21.50;99992.00;;;;4989086;28;20184;-43
2022/06/08 08:19:03;;;;;;;2.37;1.80;;;20.30;70.00;21.50;99985.00;;;;4989278;28;20658;-43
2022/06/08 08:21:30;;;;;;;1.93;1.83;;;20.30;69.80;21.50;99993.00;;;;4988084;28;20212;-42
2022/06/08 08:23:56;;;;;;;1.97;1.80;;;20.30;71.20;21.50;99991.00;;;;4988845;28;20176;-42
2022/06/08 08:26:22;;;;;;;3.27;2.00;;;20.30;70.90;21.40;99979.00;;;;4769686;28;20568;-42
2022/06/08 08:28:47;;;;;;;5.07;2.17;;;20.30;71.00;21.50;99980.00;;;;4988340;28;20177;-41
2022/06/08 08:31:13;;;;;;;2.20;2.00;;;20.30;70.90;21.50;99976.00;;;;4986884;28;20183;-42
2022/06/08 08:33:39;;;;;;;2.00;1.80;;;20.30;71.20;21.50;99976.00;;;;4988886;28;20176;-43
2022/06/08 08:36:05;;;;;;;2.07;1.87;;;20.30;70.80;21.50;99975.00;;;;4988678;28;20174;-43
2022/06/08 08:38:31;;;;;;;4.27;1.90;;;20.30;70.70;21.50;99979.00;;;;4988834;28;20180;-42
2022/06/08 08:40:59;;;;;;;3.70;1.80;;;20.40;70.80;21.50;99974.00;;;;4988731;28;20249;-43
2022/06/08 08:43:34;;;;;;;3.33;1.83;;;20.40;71.10;21.50;99968.00;;;;4987171;28;20174;-42
2022/06/08 08:46:26;;;;;;;1.97;1.77;;;20.40;71.00;21.50;99968.00;;;;4968554;28;20226;-43
2022/06/08 08:49:03;;;;;;;2.80;2.20;;;20.40;70.70;21.50;99961.00;;;;4987554;28;20641;-43
2022/06/08 08:51:43;;;;;;;3.40;1.90;;;20.40;72.00;21.50;99956.00;;;;4987958;28;20664;-43
2022/06/08 08:54:34;;;;;;;2.97;2.00;;;20.40;71.80;21.50;99959.00;;;;4988681;28;20546;-42
2022/06/08 08:57:13;;;;;;;2.70;1.97;;;20.40;72.20;21.50;99954.00;;;;4987616;28;20185;-42
2022/06/08 08:59:42;;;;;;;2.43;1.87;;;20.40;72.10;21.50;99958.00;;;;4991512;28;20626;-42
2022/06/08 09:05:21;;;;;;;3.40;2.10;;;20.50;71.70;21.60;99960.00;;;;4992203;28;20171;-44
2022/06/08 09:07:47;;;;;;;3.83;2.30;;;20.50;71.70;21.60;99947.00;;;;4989572;28;20204;-42
2022/06/08 09:10:23;;;;;;;3.37;2.20;;;20.50;72.00;21.60;99955.00;;;;4989235;28;20176;-42
2022/06/08 09:12:49;;;;;;;3.33;2.13;;;20.50;71.70;21.60;99951.00;;;;4990759;28;20218;-43
2022/06/08 09:15:17;;;;;;;3.90;1.90;;;20.50;71.90;21.70;99946.00;;;;4996416;28;20181;-43
2022/06/08 09:17:56;;;;;;;5.13;2.23;;;20.50;71.90;21.50;99946.00;;;;4995417;28;20192;-42
2022/06/08 09:20:23;;;;;;;3.90;2.00;;;20.50;72.00;21.70;99943.00;;;;4989739;28;20265;-42
2022/06/08 09:22:52;;;;;;;2.93;2.20;;;20.50;71.70;21.70;99934.00;;;;4988634;28;20238;-42
2022/06/08 09:25:31;;;;;;;5.33;2.30;;;20.60;71.20;21.70;99949.00;;;;4988053;28;20236;-43
2022/06/08 09:27:57;;;;;;;3.57;1.97;;;20.60;71.40;21.70;99935.00;;;;4989511;28;20426;-43
2022/06/08 09:30:46;;;;;;;2.87;2.20;;;20.60;71.00;21.80;99933.00;;;;4989016;28;20178;-42
2022/06/08 09:33:17;;;;;;;4.07;2.10;;;20.60;70.70;21.80;99924.00;;;;4988426;28;20203;-42
2022/06/08 09:36:05;;;;;;;4.87;2.27;;;20.70;70.30;21.80;99927.00;;;;4988603;28;20162;-43
2022/06/08 09:38:37;;;;;;;4.63;2.20;;;20.70;70.10;21.80;99914.00;;;;4988463;28;20180;-43
2022/06/08 09:41:24;;;;;;;2.93;2.10;;;20.70;69.90;21.80;99916.00;;;;4987791;28;20522;-43
2022/06/08 09:44:18;;;;;;;3.73;2.23;;;20.70;69.50;21.80;99915.00;;;;4989865;28;20207;-42
2022/06/08 09:53:50;;;;;;;5.80;2.33;;;20.70;68.40;21.80;99914.00;;;;4991376;28;20166;-42
2022/06/08 09:56:46;;;;;;;3.23;2.20;;;20.70;68.00;21.80;99911.00;;;;4992294;28;20248;-42
2022/06/08 09:59:54;;;;;;;5.13;2.30;;;20.70;67.40;21.80;99915.00;;;;4991867;28;20220;-44
2022/06/08 10:03:08;;;;;;;3.57;2.17;;;20.70;67.10;21.80;99898.00;;;;4991785;28;20591;-42
2022/06/08 10:05:49;;;;;;;5.30;2.40;;;20.70;67.10;21.80;99904.00;;;;4992169;28;20182;-42
2022/06/08 10:08:22;;;;;;;3.43;2.30;;;20.70;67.10;21.80;99908.00;;;;4990411;28;20203;-43
2022/06/08 10:11:42;;;;;;;4.80;2.10;;;20.80;67.00;21.80;99895.00;;;;4991193;28;20165;-43
2022/06/08 10:14:28;;;;;;;4.03;2.37;;;20.70;66.80;21.80;99893.00;;;;4998662;28;20189;-43
2022/06/08 10:16:59;;;;;;;3.67;2.20;;;20.80;67.00;21.80;99901.00;;;;4991915;28;20158;-42
2022/06/08 10:20:03;;;;;;;6.27;2.20;;;20.80;67.20;21.90;99891.00;;;;4991995;28;20509;-42
2022/06/08 10:22:34;;;;;;;3.23;2.20;;;20.80;67.40;21.90;99897.00;;;;4991765;28;20226;-42
2022/06/08 10:25:16;;;;;;;4.37;2.73;;;20.90;67.40;21.90;99898.00;;;;4981556;28;20637;-42
2022/06/08 10:27:54;;;;;;;5.83;2.80;;;20.90;67.30;21.90;99893.00;;;;4696289;28;20200;-42
2022/06/08 10:30:33;;;;;;;4.73;2.40;;;20.80;66.80;21.90;99895.00;;;;4973635;28;20210;-42
2022/06/08 10:33:12;;;;;;;3.83;2.40;;;20.80;66.70;22.00;99896.00;;;;4958085;28;20342;-42
2022/06/08 10:35:52;;;;;;;3.13;2.20;;;20.80;66.70;22.00;99891.00;;;;4973356;28;20229;-42
2022/06/08 10:38:27;;;;;;;4.67;2.20;;;20.80;66.90;22.00;99894.00;;;;4974361;28;20386;-43
2022/06/08 10:43:58;;;;;;;6.47;2.30;;;20.80;67.40;22.00;99887.00;;;;4988567;28;20199;-42
2022/06/08 10:46:47;;;;;;;9.20;2.43;;;20.80;68.30;22.00;99885.00;;;;4988248;28;20551;-43
2022/06/08 10:49:49;;;;;;;4.73;2.30;;;20.90;67.60;22.00;99878.00;;;;4985884;28;20185;-43
2022/06/08 10:52:21;;;;;;;7.67;2.57;;;21.00;67.70;22.10;99886.00;;;;4990897;28;20206;-42
2022/06/08 10:54:58;;;;;;;4.77;1.83;;;21.00;67.80;22.10;99889.00;;;;4989241;28;20183;-43
2022/06/08 10:57:42;;;;;;;4.27;2.57;;;21.10;67.80;22.10;99886.00;;;;4989144;28;20160;-43
2022/06/08 11:00:20;;;;;;;4.70;2.33;;;21.10;67.70;22.10;99886.00;;;;4990243;28;20164;-42
2022/06/08 11:03:03;;;;;;;2.83;2.13;;;21.10;67.20;22.10;99883.00;;;;4989637;28;20573;-43
2022/06/08 11:05:41;;;;;;;3.90;2.23;;;21.10;67.20;22.20;99885.00;;;;4973338;28;20195;-42
2022/06/08 11:08:07;;;;;;;5.77;2.73;;;21.10;66.90;22.20;99892.00;;;;4974837;28;20290;-42
2022/06/08 11:10:45;;;;;;;3.90;2.23;;;21.10;66.90;22.20;99888.00;;;;4990637;28;20699;-42
2022/06/08 11:13:25;;;;;;;3.83;2.43;;;21.10;67.20;22.20;99883.00;;;;4990097;28;20700;-42
2022/06/08 11:16:12;;;;;;;5.33;2.37;;;21.10;67.40;22.30;99880.00;;;;4990057;28;20158;-42
2022/06/08 11:19:19;;;;;;;4.80;2.20;;;21.10;67.70;22.30;99883.00;;;;4990485;28;20434;-42
2022/06/08 11:21:57;;;;;;;8.20;2.40;;;21.20;68.00;22.30;99893.00;;;;4988078;28;20282;-43
2022/06/08 11:24:38;;;;;;;11.73;3.00;;;21.20;68.00;22.30;99893.00;;;;4988437;28;20240;-42
2022/06/08 11:27:10;;;;;;;5.77;2.57;;;21.20;68.10;22.30;99904.00;;;;4969850;28;20235;-42
2022/06/08 11:29:52;;;;;;;4.73;2.37;;;21.20;68.50;22.30;99912.00;;;;4971028;28;20170;-43
2022/06/08 11:32:34;;;;;;;7.47;2.57;;;21.20;68.30;22.40;99926.00;;;;4990328;28;20244;-43